sensor_id;sensor_type;location;lat;lon;timestamp;P1;durP1;ratioP1;P2;durP2;ratioP2
77117;SDS011;66072;50.238;19.228;2023-03-02T00:01:25;111.70;;;47.50;;
77117;SDS011;66072;50.238;19.228;2023-03-02T00:03:55;111.20;;;47.50;;
77117;SDS011;66072;50.238;19.228;2023-03-02T00:08:54;117.20;;;50.20;;
77117;SDS011;66072;50.238;19.228;2023-03-02T00:11:23;122.90;;;51.20;;
77117;SDS011;66072;50.238;19.228;2023-03-02T00:13:51;117.50;;;49.70;;
77117;SDS011;66072;50.238;19.228;2023-03-02T00:16:19;115.10;;;49.00;;
77117;SDS011;66072;50.238;19.228;2023-03-02T00:18:46;117.70;;;52.00;;
77117;SDS011;66072;50.238;19.228;2023-03-02T00:21:14;120.00;;;50.80;;
77117;SDS011;66072;50.238;19.228;2023-03-02T00:23:42;117.90;;;48.30;;
77117;SDS011;66072;50.238;19.228;2023-03-02T00:26:09;106.50;;;47.50;;
77117;SDS011;66072;50.238;19.228;2023-03-02T00:28:37;118.80;;;50.40;;
77117;SDS011;66072;50.238;19.228;2023-03-02T00:31:05;118.70;;;51.70;;
77117;SDS011;66072;50.238;19.228;2023-03-02T00:33:33;105.40;;;46.10;;
77117;SDS011;66072;50.238;19.228;2023-03-02T00:36:00;94.80;;;38.10;;
77117;SDS011;66072;50.238;19.228;2023-03-02T00:38:29;106.90;;;43.40;;
77117;SDS011;66072;50.238;19.228;2023-03-02T00:40:57;92.30;;;43.60;;
77117;SDS011;66072;50.238;19.228;2023-03-02T00:43:25;100.50;;;44.60;;
77117;SDS011;66072;50.238;19.228;2023-03-02T00:45:53;103.60;;;43.60;;
77117;SDS011;66072;50.238;19.228;2023-03-02T00:48:21;98.00;;;41.30;;
77117;SDS011;66072;50.238;19.228;2023-03-02T00:50:49;102.50;;;43.90;;
77117;SDS011;66072;50.238;19.228;2023-03-02T00:53:16;106.10;;;46.00;;
77117;SDS011;66072;50.238;19.228;2023-03-02T00:55:51;104.30;;;43.10;;
77117;SDS011;66072;50.238;19.228;2023-03-02T00:58:20;95.10;;;44.40;;
77117;SDS011;66072;50.238;19.228;2023-03-02T01:00:48;103.60;;;43.70;;
77117;SDS011;66072;50.238;19.228;2023-03-02T01:03:16;103.70;;;45.40;;
77117;SDS011;66072;50.238;19.228;2023-03-02T01:05:43;109.50;;;48.50;;
77117;SDS011;66072;50.238;19.228;2023-03-02T01:08:11;107.70;;;49.40;;
77117;SDS011;66072;50.238;19.228;2023-03-02T01:10:39;101.40;;;45.90;;
77117;SDS011;66072;50.238;19.228;2023-03-02T01:13:06;104.00;;;44.00;;
77117;SDS011;66072;50.238;19.228;2023-03-02T01:15:34;102.40;;;43.60;;
77117;SDS011;66072;50.238;19.228;2023-03-02T01:18:02;99.70;;;42.90;;
77117;SDS011;66072;50.238;19.228;2023-03-02T01:20:29;87.60;;;42.70;;
77117;SDS011;66072;50.238;19.228;2023-03-02T01:22:57;100.40;;;45.70;;
77117;SDS011;66072;50.238;19.228;2023-03-02T01:25:24;99.50;;;45.20;;
77117;SDS011;66072;50.238;19.228;2023-03-02T01:27:52;97.30;;;43.20;;
77117;SDS011;66072;50.238;19.228;2023-03-02T01:30:20;92.70;;;44.10;;
77117;SDS011;66072;50.238;19.228;2023-03-02T01:32:48;103.40;;;45.20;;
77117;SDS011;66072;50.238;19.228;2023-03-02T01:35:15;100.80;;;47.10;;
77117;SDS011;66072;50.238;19.228;2023-03-02T01:37:43;99.50;;;46.40;;
77117;SDS011;66072;50.238;19.228;2023-03-02T01:40:12;99.00;;;45.60;;
77117;SDS011;66072;50.238;19.228;2023-03-02T01:42:44;102.90;;;44.50;;
77117;SDS011;66072;50.238;19.228;2023-03-02T01:48:11;101.00;;;43.50;;
77117;SDS011;66072;50.238;19.228;2023-03-02T01:50:42;99.90;;;45.90;;
77117;SDS011;66072;50.238;19.228;2023-03-02T01:53:10;97.60;;;44.60;;
77117;SDS011;66072;50.238;19.228;2023-03-02T01:55:39;97.10;;;42.20;;
77117;SDS011;66072;50.238;19.228;2023-03-02T01:58:07;104.20;;;44.40;;
77117;SDS011;66072;50.238;19.228;2023-03-02T02:00:36;105.70;;;45.60;;
77117;SDS011;66072;50.238;19.228;2023-03-02T02:03:09;99.70;;;45.80;;
77117;SDS011;66072;50.238;19.228;2023-03-02T02:05:41;106.90;;;50.50;;
77117;SDS011;66072;50.238;19.228;2023-03-02T02:08:13;103.20;;;47.20;;
77117;SDS011;66072;50.238;19.228;2023-03-02T02:10:41;104.80;;;47.00;;
77117;SDS011;66072;50.238;19.228;2023-03-02T02:13:09;100.10;;;45.30;;
77117;SDS011;66072;50.238;19.228;2023-03-02T02:15:37;108.70;;;45.00;;
77117;SDS011;66072;50.238;19.228;2023-03-02T02:18:06;103.60;;;43.50;;
77117;SDS011;66072;50.238;19.228;2023-03-02T02:26:08;100.60;;;42.90;;
77117;SDS011;66072;50.238;19.228;2023-03-02T02:28:41;96.90;;;42.20;;
77117;SDS011;66072;50.238;19.228;2023-03-02T02:31:20;98.40;;;46.70;;
77117;SDS011;66072;50.238;19.228;2023-03-02T02:34:10;102.80;;;44.90;;
77117;SDS011;66072;50.238;19.228;2023-03-02T02:36:50;95.80;;;42.40;;
77117;SDS011;66072;50.238;19.228;2023-03-02T02:39:25;92.30;;;43.40;;
77117;SDS011;66072;50.238;19.228;2023-03-02T02:41:58;100.60;;;42.10;;
77117;SDS011;66072;50.238;19.228;2023-03-02T02:44:28;110.00;;;46.00;;
77117;SDS011;66072;50.238;19.228;2023-03-02T02:46:57;110.60;;;47.90;;
77117;SDS011;66072;50.238;19.228;2023-03-02T02:49:27;108.90;;;47.60;;
77117;SDS011;66072;50.238;19.228;2023-03-02T02:51:58;99.20;;;44.10;;
77117;SDS011;66072;50.238;19.228;2023-03-02T02:54:26;108.90;;;46.60;;
77117;SDS011;66072;50.238;19.228;2023-03-02T02:56:56;112.20;;;51.70;;
77117;SDS011;66072;50.238;19.228;2023-03-02T02:59:28;114.70;;;50.10;;
77117;SDS011;66072;50.238;19.228;2023-03-02T03:01:59;111.20;;;48.70;;
77117;SDS011;66072;50.238;19.228;2023-03-02T03:04:28;107.90;;;46.80;;
77117;SDS011;66072;50.238;19.228;2023-03-02T03:07:04;108.90;;;47.40;;
77117;SDS011;66072;50.238;19.228;2023-03-02T03:09:32;106.80;;;47.30;;
77117;SDS011;66072;50.238;19.228;2023-03-02T03:12:01;117.90;;;51.90;;
77117;SDS011;66072;50.238;19.228;2023-03-02T03:14:35;105.60;;;45.80;;
77117;SDS011;66072;50.238;19.228;2023-03-02T03:17:06;100.00;;;43.40;;
77117;SDS011;66072;50.238;19.228;2023-03-02T03:19:34;112.60;;;47.60;;
77117;SDS011;66072;50.238;19.228;2023-03-02T03:22:02;113.00;;;46.40;;
77117;SDS011;66072;50.238;19.228;2023-03-02T03:24:30;105.50;;;45.40;;
77117;SDS011;66072;50.238;19.228;2023-03-02T03:27:00;112.30;;;45.20;;
77117;SDS011;66072;50.238;19.228;2023-03-02T03:29:28;100.20;;;41.40;;
77117;SDS011;66072;50.238;19.228;2023-03-02T03:31:56;96.20;;;44.20;;
77117;SDS011;66072;50.238;19.228;2023-03-02T03:34:26;106.70;;;48.30;;
77117;SDS011;66072;50.238;19.228;2023-03-02T03:36:54;111.60;;;50.10;;
77117;SDS011;66072;50.238;19.228;2023-03-02T03:39:22;105.80;;;47.20;;
77117;SDS011;66072;50.238;19.228;2023-03-02T03:41:50;97.60;;;45.90;;
77117;SDS011;66072;50.238;19.228;2023-03-02T03:44:17;85.30;;;36.10;;
77117;SDS011;66072;50.238;19.228;2023-03-02T03:46:45;105.90;;;44.90;;
77117;SDS011;66072;50.238;19.228;2023-03-02T03:49:12;110.60;;;48.90;;
77117;SDS011;66072;50.238;19.228;2023-03-02T03:51:40;106.50;;;49.20;;
77117;SDS011;66072;50.238;19.228;2023-03-02T03:54:08;102.20;;;45.40;;
77117;SDS011;66072;50.238;19.228;2023-03-02T03:56:38;113.40;;;49.30;;
77117;SDS011;66072;50.238;19.228;2023-03-02T03:59:08;112.00;;;53.10;;
77117;SDS011;66072;50.238;19.228;2023-03-02T04:01:44;110.80;;;48.80;;
77117;SDS011;66072;50.238;19.228;2023-03-02T04:09:11;83.30;;;35.50;;
77117;SDS011;66072;50.238;19.228;2023-03-02T04:11:40;89.40;;;39.80;;
77117;SDS011;66072;50.238;19.228;2023-03-02T04:14:09;90.30;;;40.90;;
77117;SDS011;66072;50.238;19.228;2023-03-02T04:16:38;87.70;;;39.30;;
77117;SDS011;66072;50.238;19.228;2023-03-02T04:19:07;103.40;;;45.40;;
77117;SDS011;66072;50.238;19.228;2023-03-02T04:21:40;97.40;;;43.90;;
77117;SDS011;66072;50.238;19.228;2023-03-02T04:24:10;93.20;;;43.20;;
77117;SDS011;66072;50.238;19.228;2023-03-02T04:26:39;98.20;;;44.80;;
77117;SDS011;66072;50.238;19.228;2023-03-02T04:29:08;101.20;;;43.00;;
77117;SDS011;66072;50.238;19.228;2023-03-02T04:31:37;93.40;;;39.90;;
77117;SDS011;66072;50.238;19.228;2023-03-02T04:34:06;91.40;;;40.60;;
77117;SDS011;66072;50.238;19.228;2023-03-02T04:36:35;89.60;;;39.50;;
77117;SDS011;66072;50.238;19.228;2023-03-02T04:39:05;86.90;;;39.50;;
77117;SDS011;66072;50.238;19.228;2023-03-02T04:41:34;88.10;;;42.20;;
77117;SDS011;66072;50.238;19.228;2023-03-02T04:44:01;97.80;;;43.70;;
77117;SDS011;66072;50.238;19.228;2023-03-02T04:46:30;98.00;;;42.70;;
77117;SDS011;66072;50.238;19.228;2023-03-02T04:48:58;97.60;;;43.60;;
77117;SDS011;66072;50.238;19.228;2023-03-02T04:51:30;92.30;;;40.80;;
77117;SDS011;66072;50.238;19.228;2023-03-02T04:54:01;92.60;;;42.60;;
77117;SDS011;66072;50.238;19.228;2023-03-02T04:56:31;94.80;;;41.10;;
77117;SDS011;66072;50.238;19.228;2023-03-02T04:59:00;93.30;;;41.40;;
77117;SDS011;66072;50.238;19.228;2023-03-02T05:01:28;94.90;;;43.90;;
77117;SDS011;66072;50.238;19.228;2023-03-02T05:03:55;89.10;;;41.20;;
77117;SDS011;66072;50.238;19.228;2023-03-02T05:06:23;89.70;;;42.50;;
77117;SDS011;66072;50.238;19.228;2023-03-02T05:08:51;95.70;;;42.70;;
77117;SDS011;66072;50.238;19.228;2023-03-02T05:11:19;97.20;;;44.50;;
77117;SDS011;66072;50.238;19.228;2023-03-02T05:13:51;89.80;;;43.30;;
77117;SDS011;66072;50.238;19.228;2023-03-02T05:16:21;104.30;;;44.10;;
77117;SDS011;66072;50.238;19.228;2023-03-02T05:18:49;95.70;;;43.60;;
77117;SDS011;66072;50.238;19.228;2023-03-02T05:21:17;93.30;;;43.70;;
77117;SDS011;66072;50.238;19.228;2023-03-02T05:23:45;90.80;;;43.60;;
77117;SDS011;66072;50.238;19.228;2023-03-02T05:26:13;91.60;;;42.60;;
77117;SDS011;66072;50.238;19.228;2023-03-02T05:28:41;92.40;;;41.60;;
77117;SDS011;66072;50.238;19.228;2023-03-02T05:31:11;89.00;;;41.60;;
77117;SDS011;66072;50.238;19.228;2023-03-02T05:33:45;76.50;;;32.00;;
77117;SDS011;66072;50.238;19.228;2023-03-02T05:36:13;83.20;;;36.70;;
77117;SDS011;66072;50.238;19.228;2023-03-02T05:38:45;94.20;;;39.70;;
77117;SDS011;66072;50.238;19.228;2023-03-02T05:41:13;84.70;;;39.00;;
77117;SDS011;66072;50.238;19.228;2023-03-02T05:43:41;102.10;;;42.30;;
77117;SDS011;66072;50.238;19.228;2023-03-02T05:46:09;98.90;;;42.20;;
77117;SDS011;66072;50.238;19.228;2023-03-02T05:48:36;96.10;;;41.70;;
77117;SDS011;66072;50.238;19.228;2023-03-02T05:51:04;82.50;;;37.80;;
77117;SDS011;66072;50.238;19.228;2023-03-02T05:53:32;91.70;;;40.40;;
77117;SDS011;66072;50.238;19.228;2023-03-02T05:55:59;86.80;;;39.00;;
77117;SDS011;66072;50.238;19.228;2023-03-02T05:58:27;89.00;;;39.40;;
77117;SDS011;66072;50.238;19.228;2023-03-02T06:00:54;94.60;;;40.90;;
77117;SDS011;66072;50.238;19.228;2023-03-02T06:03:22;81.80;;;38.60;;
77117;SDS011;66072;50.238;19.228;2023-03-02T06:05:50;86.70;;;39.70;;
77117;SDS011;66072;50.238;19.228;2023-03-02T06:08:18;87.40;;;39.50;;
77117;SDS011;66072;50.238;19.228;2023-03-02T06:10:46;88.00;;;41.70;;
77117;SDS011;66072;50.238;19.228;2023-03-02T06:13:14;87.50;;;38.60;;
77117;SDS011;66072;50.238;19.228;2023-03-02T06:15:42;99.80;;;43.00;;
77117;SDS011;66072;50.238;19.228;2023-03-02T06:18:10;105.80;;;48.50;;
77117;SDS011;66072;50.238;19.228;2023-03-02T06:20:38;98.40;;;41.40;;
77117;SDS011;66072;50.238;19.228;2023-03-02T06:23:06;92.20;;;43.10;;
77117;SDS011;66072;50.238;19.228;2023-03-02T06:25:34;95.30;;;41.30;;
77117;SDS011;66072;50.238;19.228;2023-03-02T06:28:01;112.90;;;60.50;;
77117;SDS011;66072;50.238;19.228;2023-03-02T06:30:29;97.80;;;46.10;;
77117;SDS011;66072;50.238;19.228;2023-03-02T06:32:56;87.60;;;42.40;;
77117;SDS011;66072;50.238;19.228;2023-03-02T06:35:24;93.80;;;41.30;;
77117;SDS011;66072;50.238;19.228;2023-03-02T06:37:52;96.00;;;44.60;;
77117;SDS011;66072;50.238;19.228;2023-03-02T06:40:19;88.80;;;37.60;;
77117;SDS011;66072;50.238;19.228;2023-03-02T06:42:47;79.60;;;35.50;;
77117;SDS011;66072;50.238;19.228;2023-03-02T06:45:15;82.20;;;37.90;;
77117;SDS011;66072;50.238;19.228;2023-03-02T06:47:42;78.70;;;36.20;;
77117;SDS011;66072;50.238;19.228;2023-03-02T06:50:10;87.20;;;41.60;;
77117;SDS011;66072;50.238;19.228;2023-03-02T06:52:38;78.00;;;35.80;;
77117;SDS011;66072;50.238;19.228;2023-03-02T06:55:05;88.70;;;42.00;;
77117;SDS011;66072;50.238;19.228;2023-03-02T06:57:33;107.30;;;52.20;;
77117;SDS011;66072;50.238;19.228;2023-03-02T07:00:02;96.20;;;47.80;;
77117;SDS011;66072;50.238;19.228;2023-03-02T07:02:33;84.00;;;36.90;;
77117;SDS011;66072;50.238;19.228;2023-03-02T07:05:00;98.30;;;46.10;;
77117;SDS011;66072;50.238;19.228;2023-03-02T07:07:28;96.00;;;45.10;;
77117;SDS011;66072;50.238;19.228;2023-03-02T07:09:56;86.30;;;42.80;;
77117;SDS011;66072;50.238;19.228;2023-03-02T07:12:23;100.80;;;50.00;;
77117;SDS011;66072;50.238;19.228;2023-03-02T07:14:51;98.90;;;48.40;;
77117;SDS011;66072;50.238;19.228;2023-03-02T07:17:19;96.00;;;47.40;;
77117;SDS011;66072;50.238;19.228;2023-03-02T07:19:46;96.30;;;47.30;;
77117;SDS011;66072;50.238;19.228;2023-03-02T07:22:14;90.20;;;43.20;;
77117;SDS011;66072;50.238;19.228;2023-03-02T07:24:42;93.80;;;47.20;;
77117;SDS011;66072;50.238;19.228;2023-03-02T07:27:11;97.30;;;46.30;;
77117;SDS011;66072;50.238;19.228;2023-03-02T07:29:39;81.20;;;40.50;;
77117;SDS011;66072;50.238;19.228;2023-03-02T07:32:06;87.40;;;39.10;;
77117;SDS011;66072;50.238;19.228;2023-03-02T07:34:35;84.40;;;41.20;;
77117;SDS011;66072;50.238;19.228;2023-03-02T07:37:03;79.40;;;41.50;;
77117;SDS011;66072;50.238;19.228;2023-03-02T07:39:31;82.00;;;38.90;;
77117;SDS011;66072;50.238;19.228;2023-03-02T07:41:59;76.90;;;39.50;;
77117;SDS011;66072;50.238;19.228;2023-03-02T07:44:27;67.50;;;35.80;;
77117;SDS011;66072;50.238;19.228;2023-03-02T07:46:55;69.50;;;35.80;;
77117;SDS011;66072;50.238;19.228;2023-03-02T07:49:23;74.40;;;41.00;;
77117;SDS011;66072;50.238;19.228;2023-03-02T07:51:50;79.90;;;38.50;;
77117;SDS011;66072;50.238;19.228;2023-03-02T07:54:18;76.70;;;37.10;;
77117;SDS011;66072;50.238;19.228;2023-03-02T07:56:46;62.30;;;33.20;;
77117;SDS011;66072;50.238;19.228;2023-03-02T07:59:13;65.70;;;32.00;;
77117;SDS011;66072;50.238;19.228;2023-03-02T08:01:41;59.60;;;31.90;;
77117;SDS011;66072;50.238;19.228;2023-03-02T08:04:09;58.60;;;29.40;;
77117;SDS011;66072;50.238;19.228;2023-03-02T08:06:36;54.40;;;27.80;;
77117;SDS011;66072;50.238;19.228;2023-03-02T08:09:06;51.90;;;26.80;;
77117;SDS011;66072;50.238;19.228;2023-03-02T08:11:34;46.50;;;26.60;;
77117;SDS011;66072;50.238;19.228;2023-03-02T08:14:02;48.80;;;28.20;;
77117;SDS011;66072;50.238;19.228;2023-03-02T08:16:29;51.20;;;27.00;;
77117;SDS011;66072;50.238;19.228;2023-03-02T08:18:57;50.70;;;25.30;;
77117;SDS011;66072;50.238;19.228;2023-03-02T08:21:27;52.70;;;27.20;;
77117;SDS011;66072;50.238;19.228;2023-03-02T08:23:56;44.20;;;26.40;;
77117;SDS011;66072;50.238;19.228;2023-03-02T08:26:24;49.50;;;25.80;;
77117;SDS011;66072;50.238;19.228;2023-03-02T08:28:51;49.60;;;28.10;;
77117;SDS011;66072;50.238;19.228;2023-03-02T08:31:19;38.40;;;22.80;;
77117;SDS011;66072;50.238;19.228;2023-03-02T08:33:47;46.40;;;25.20;;
77117;SDS011;66072;50.238;19.228;2023-03-02T08:36:15;54.10;;;25.30;;
77117;SDS011;66072;50.238;19.228;2023-03-02T08:41:14;42.60;;;21.00;;
77117;SDS011;66072;50.238;19.228;2023-03-02T08:43:43;44.50;;;24.50;;
77117;SDS011;66072;50.238;19.228;2023-03-02T08:46:11;43.80;;;24.50;;
77117;SDS011;66072;50.238;19.228;2023-03-02T08:48:40;46.20;;;22.20;;
77117;SDS011;66072;50.238;19.228;2023-03-02T08:51:10;36.10;;;20.10;;
77117;SDS011;66072;50.238;19.228;2023-03-02T08:53:40;40.30;;;21.70;;
77117;SDS011;66072;50.238;19.228;2023-03-02T08:58:47;40.00;;;21.00;;
77117;SDS011;66072;50.238;19.228;2023-03-02T09:01:16;37.80;;;19.90;;
77117;SDS011;66072;50.238;19.228;2023-03-02T09:03:46;35.40;;;18.40;;
77117;SDS011;66072;50.238;19.228;2023-03-02T09:06:14;37.30;;;20.00;;
77117;SDS011;66072;50.238;19.228;2023-03-02T09:08:42;39.10;;;19.10;;
77117;SDS011;66072;50.238;19.228;2023-03-02T09:11:10;32.20;;;17.10;;
77117;SDS011;66072;50.238;19.228;2023-03-02T09:13:37;25.10;;;14.10;;
77117;SDS011;66072;50.238;19.228;2023-03-02T09:16:05;30.00;;;15.70;;
77117;SDS011;66072;50.238;19.228;2023-03-02T09:18:33;25.10;;;14.70;;
77117;SDS011;66072;50.238;19.228;2023-03-02T09:21:02;24.80;;;14.20;;
77117;SDS011;66072;50.238;19.228;2023-03-02T09:23:30;24.80;;;13.50;;
77117;SDS011;66072;50.238;19.228;2023-03-02T09:25:59;28.30;;;14.90;;
77117;SDS011;66072;50.238;19.228;2023-03-02T09:28:26;24.40;;;14.10;;
77117;SDS011;66072;50.238;19.228;2023-03-02T09:30:56;24.10;;;12.80;;
77117;SDS011;66072;50.238;19.228;2023-03-02T09:33:26;22.50;;;13.30;;
77117;SDS011;66072;50.238;19.228;2023-03-02T09:35:54;22.80;;;12.00;;
77117;SDS011;66072;50.238;19.228;2023-03-02T09:38:22;27.10;;;15.00;;
77117;SDS011;66072;50.238;19.228;2023-03-02T09:46:49;17.80;;;10.20;;
77117;SDS011;66072;50.238;19.228;2023-03-02T09:54:36;16.10;;;9.30;;
77117;SDS011;66072;50.238;19.228;2023-03-02T09:57:13;20.60;;;11.00;;
77117;SDS011;66072;50.238;19.228;2023-03-02T09:59:50;20.80;;;11.90;;
77117;SDS011;66072;50.238;19.228;2023-03-02T10:02:32;24.60;;;12.30;;
77117;SDS011;66072;50.238;19.228;2023-03-02T10:06:15;17.70;;;9.70;;
77117;SDS011;66072;50.238;19.228;2023-03-02T10:08:43;25.70;;;13.40;;
77117;SDS011;66072;50.238;19.228;2023-03-02T10:19:18;23.70;;;12.10;;
77117;SDS011;66072;50.238;19.228;2023-03-02T10:25:21;18.60;;;11.30;;
77117;SDS011;66072;50.238;19.228;2023-03-02T10:28:00;20.40;;;11.50;;
77117;SDS011;66072;50.238;19.228;2023-03-02T10:30:38;17.60;;;10.40;;
77117;SDS011;66072;50.238;19.228;2023-03-02T10:33:16;17.90;;;10.50;;
77117;SDS011;66072;50.238;19.228;2023-03-02T10:35:47;17.80;;;10.00;;
77117;SDS011;66072;50.238;19.228;2023-03-02T10:43:29;22.70;;;13.30;;
77117;SDS011;66072;50.238;19.228;2023-03-02T10:46:02;16.40;;;8.20;;
77117;SDS011;66072;50.238;19.228;2023-03-02T10:48:32;16.30;;;9.70;;
77117;SDS011;66072;50.238;19.228;2023-03-02T10:51:00;17.80;;;10.60;;
77117;SDS011;66072;50.238;19.228;2023-03-02T10:53:28;18.70;;;10.40;;
77117;SDS011;66072;50.238;19.228;2023-03-02T10:55:55;16.30;;;10.90;;
77117;SDS011;66072;50.238;19.228;2023-03-02T10:58:24;18.70;;;10.60;;
77117;SDS011;66072;50.238;19.228;2023-03-02T11:01:04;19.80;;;10.40;;
77117;SDS011;66072;50.238;19.228;2023-03-02T11:03:41;14.40;;;9.90;;
77117;SDS011;66072;50.238;19.228;2023-03-02T11:06:18;16.60;;;10.80;;
77117;SDS011;66072;50.238;19.228;2023-03-02T11:11:49;19.60;;;11.10;;
77117;SDS011;66072;50.238;19.228;2023-03-02T11:14:20;15.00;;;9.50;;
77117;SDS011;66072;50.238;19.228;2023-03-02T11:16:49;18.00;;;10.40;;
77117;SDS011;66072;50.238;19.228;2023-03-02T11:24:52;14.80;;;8.70;;
77117;SDS011;66072;50.238;19.228;2023-03-02T11:27:25;15.90;;;10.40;;
77117;SDS011;66072;50.238;19.228;2023-03-02T11:30:03;14.80;;;10.30;;
77117;SDS011;66072;50.238;19.228;2023-03-02T11:32:42;17.10;;;10.40;;
77117;SDS011;66072;50.238;19.228;2023-03-02T11:38:16;18.80;;;10.90;;
77117;SDS011;66072;50.238;19.228;2023-03-02T11:40:57;13.80;;;8.70;;
77117;SDS011;66072;50.238;19.228;2023-03-02T11:43:29;14.50;;;9.70;;
77117;SDS011;66072;50.238;19.228;2023-03-02T11:45:58;15.30;;;10.00;;
77117;SDS011;66072;50.238;19.228;2023-03-02T11:51:01;11.60;;;7.70;;
77117;SDS011;66072;50.238;19.228;2023-03-02T11:53:32;14.40;;;8.00;;
77117;SDS011;66072;50.238;19.228;2023-03-02T11:56:07;14.90;;;9.00;;
77117;SDS011;66072;50.238;19.228;2023-03-02T11:58:35;14.10;;;8.40;;
77117;SDS011;66072;50.238;19.228;2023-03-02T12:01:06;14.60;;;9.70;;
77117;SDS011;66072;50.238;19.228;2023-03-02T12:03:39;11.40;;;7.30;;
77117;SDS011;66072;50.238;19.228;2023-03-02T12:08:45;10.70;;;6.90;;
77117;SDS011;66072;50.238;19.228;2023-03-02T12:13:56;11.60;;;7.10;;
77117;SDS011;66072;50.238;19.228;2023-03-02T12:16:41;12.30;;;8.00;;
77117;SDS011;66072;50.238;19.228;2023-03-02T12:21:59;11.30;;;7.30;;
77117;SDS011;66072;50.238;19.228;2023-03-02T12:24:30;10.20;;;6.90;;
77117;SDS011;66072;50.238;19.228;2023-03-02T12:27:04;12.90;;;9.80;;
77117;SDS011;66072;50.238;19.228;2023-03-02T12:32:35;10.20;;;6.90;;
77117;SDS011;66072;50.238;19.228;2023-03-02T12:37:47;10.80;;;7.40;;
77117;SDS011;66072;50.238;19.228;2023-03-02T12:43:24;10.10;;;6.60;;
77117;SDS011;66072;50.238;19.228;2023-03-02T12:48:46;8.30;;;6.30;;
77117;SDS011;66072;50.238;19.228;2023-03-02T12:51:28;8.80;;;6.20;;
77117;SDS011;66072;50.238;19.228;2023-03-02T12:54:10;9.90;;;7.00;;
77117;SDS011;66072;50.238;19.228;2023-03-02T12:56:41;9.00;;;5.80;;
77117;SDS011;66072;50.238;19.228;2023-03-02T12:59:17;10.70;;;6.60;;
77117;SDS011;66072;50.238;19.228;2023-03-02T13:01:48;8.80;;;5.80;;
77117;SDS011;66072;50.238;19.228;2023-03-02T13:04:25;9.50;;;6.10;;
77117;SDS011;66072;50.238;19.228;2023-03-02T13:06:53;10.60;;;6.90;;
77117;SDS011;66072;50.238;19.228;2023-03-02T13:09:21;9.50;;;5.90;;
77117;SDS011;66072;50.238;19.228;2023-03-02T13:11:49;9.00;;;6.00;;
77117;SDS011;66072;50.238;19.228;2023-03-02T13:16:54;8.00;;;5.90;;
77117;SDS011;66072;50.238;19.228;2023-03-02T13:19:26;10.60;;;6.10;;
77117;SDS011;66072;50.238;19.228;2023-03-02T13:21:54;8.80;;;5.40;;
77117;SDS011;66072;50.238;19.228;2023-03-02T13:24:33;8.30;;;6.00;;
77117;SDS011;66072;50.238;19.228;2023-03-02T13:27:18;9.50;;;6.10;;
77117;SDS011;66072;50.238;19.228;2023-03-02T13:29:48;8.50;;;5.60;;
77117;SDS011;66072;50.238;19.228;2023-03-02T13:34:52;9.30;;;5.90;;
77117;SDS011;66072;50.238;19.228;2023-03-02T13:37:23;9.40;;;6.30;;
77117;SDS011;66072;50.238;19.228;2023-03-02T13:40:01;8.00;;;5.20;;
77117;SDS011;66072;50.238;19.228;2023-03-02T13:42:37;6.60;;;5.30;;
77117;SDS011;66072;50.238;19.228;2023-03-02T13:45:07;8.90;;;5.20;;
77117;SDS011;66072;50.238;19.228;2023-03-02T13:47:57;8.80;;;5.50;;
77117;SDS011;66072;50.238;19.228;2023-03-02T13:50:27;9.10;;;5.60;;
77117;SDS011;66072;50.238;19.228;2023-03-02T13:52:58;8.40;;;5.90;;
77117;SDS011;66072;50.238;19.228;2023-03-02T13:55:28;9.00;;;5.50;;
77117;SDS011;66072;50.238;19.228;2023-03-02T13:57:56;9.40;;;6.20;;
77117;SDS011;66072;50.238;19.228;2023-03-02T14:00:29;8.80;;;5.90;;
77117;SDS011;66072;50.238;19.228;2023-03-02T14:02:59;10.90;;;7.70;;
77117;SDS011;66072;50.238;19.228;2023-03-02T14:05:28;12.60;;;7.50;;
77117;SDS011;66072;50.238;19.228;2023-03-02T14:07:56;12.50;;;7.40;;
77117;SDS011;66072;50.238;19.228;2023-03-02T14:10:23;12.00;;;8.10;;
77117;SDS011;66072;50.238;19.228;2023-03-02T14:12:57;12.50;;;7.90;;
77117;SDS011;66072;50.238;19.228;2023-03-02T14:15:29;12.10;;;8.10;;
77117;SDS011;66072;50.238;19.228;2023-03-02T14:17:58;12.10;;;8.00;;
77117;SDS011;66072;50.238;19.228;2023-03-02T14:20:26;13.30;;;9.30;;
77117;SDS011;66072;50.238;19.228;2023-03-02T14:22:54;13.20;;;8.30;;
77117;SDS011;66072;50.238;19.228;2023-03-02T14:25:21;12.30;;;8.00;;
77117;SDS011;66072;50.238;19.228;2023-03-02T14:27:49;12.20;;;8.20;;
77117;SDS011;66072;50.238;19.228;2023-03-02T14:30:19;11.10;;;8.50;;
77117;SDS011;66072;50.238;19.228;2023-03-02T14:32:48;12.60;;;8.80;;
77117;SDS011;66072;50.238;19.228;2023-03-02T14:35:15;12.10;;;9.10;;
77117;SDS011;66072;50.238;19.228;2023-03-02T14:37:44;12.70;;;9.50;;
77117;SDS011;66072;50.238;19.228;2023-03-02T14:40:25;14.00;;;9.80;;
77117;SDS011;66072;50.238;19.228;2023-03-02T14:42:53;14.50;;;10.40;;
77117;SDS011;66072;50.238;19.228;2023-03-02T14:45:21;14.80;;;11.00;;
77117;SDS011;66072;50.238;19.228;2023-03-02T14:47:49;14.90;;;11.00;;
77117;SDS011;66072;50.238;19.228;2023-03-02T14:50:16;14.30;;;10.40;;
77117;SDS011;66072;50.238;19.228;2023-03-02T14:52:45;15.00;;;9.80;;
77117;SDS011;66072;50.238;19.228;2023-03-02T14:55:25;14.50;;;9.80;;
77117;SDS011;66072;50.238;19.228;2023-03-02T14:57:59;14.20;;;10.10;;
77117;SDS011;66072;50.238;19.228;2023-03-02T15:00:29;13.90;;;8.80;;
77117;SDS011;66072;50.238;19.228;2023-03-02T15:02:57;14.70;;;9.60;;
77117;SDS011;66072;50.238;19.228;2023-03-02T15:05:25;12.80;;;9.60;;
77117;SDS011;66072;50.238;19.228;2023-03-02T15:07:53;13.50;;;9.90;;
77117;SDS011;66072;50.238;19.228;2023-03-02T15:10:22;12.20;;;9.10;;
77117;SDS011;66072;50.238;19.228;2023-03-02T15:12:50;14.70;;;9.40;;
77117;SDS011;66072;50.238;19.228;2023-03-02T15:15:18;13.80;;;9.20;;
77117;SDS011;66072;50.238;19.228;2023-03-02T15:17:45;11.30;;;8.30;;
77117;SDS011;66072;50.238;19.228;2023-03-02T15:20:14;12.20;;;9.20;;
77117;SDS011;66072;50.238;19.228;2023-03-02T15:22:42;14.00;;;9.30;;
77117;SDS011;66072;50.238;19.228;2023-03-02T15:25:10;14.60;;;9.60;;
77117;SDS011;66072;50.238;19.228;2023-03-02T15:27:37;17.70;;;9.90;;
77117;SDS011;66072;50.238;19.228;2023-03-02T15:30:05;13.10;;;8.80;;
77117;SDS011;66072;50.238;19.228;2023-03-02T15:32:34;13.10;;;8.20;;
77117;SDS011;66072;50.238;19.228;2023-03-02T15:35:03;16.60;;;8.90;;
77117;SDS011;66072;50.238;19.228;2023-03-02T15:37:31;14.90;;;7.90;;
77117;SDS011;66072;50.238;19.228;2023-03-02T15:39:59;16.80;;;9.50;;
77117;SDS011;66072;50.238;19.228;2023-03-02T15:42:26;16.90;;;10.30;;
77117;SDS011;66072;50.238;19.228;2023-03-02T15:44:56;18.10;;;9.90;;
77117;SDS011;66072;50.238;19.228;2023-03-02T15:47:24;16.40;;;10.30;;
77117;SDS011;66072;50.238;19.228;2023-03-02T15:49:52;17.40;;;10.30;;
77117;SDS011;66072;50.238;19.228;2023-03-02T15:52:19;15.90;;;9.50;;
77117;SDS011;66072;50.238;19.228;2023-03-02T15:54:47;16.10;;;8.40;;